createdAt,value
2022-08-11T00:01:55.952Z,1.13
2022-08-11T00:04:24.473Z,1.43
2022-08-11T00:06:52.105Z,0.97
2022-08-11T00:09:22.047Z,1.30
2022-08-11T00:11:52.827Z,1.20
2022-08-11T00:14:37.272Z,1.17
2022-08-11T00:17:04.615Z,1.50
2022-08-11T00:20:12.648Z,1.50
2022-08-11T00:22:21.455Z,1.07
2022-08-11T00:24:53.341Z,1.30
2022-08-11T00:27:31.796Z,1.30
2022-08-11T00:29:58.524Z,1.13
2022-08-11T00:32:25.279Z,0.93
2022-08-11T00:34:52.177Z,1.33
2022-08-11T00:37:39.203Z,1.17
2022-08-11T00:40:10.195Z,1.10
2022-08-11T00:43:01.937Z,0.93
2022-08-11T00:45:43.927Z,1.33
2022-08-11T00:48:27.773Z,0.93
2022-08-11T00:51:05.680Z,1.47
2022-08-11T00:54:03.380Z,1.20
2022-08-11T00:56:54.923Z,1.37
2022-08-11T00:59:43.688Z,1.50
2022-08-11T01:02:17.916Z,1.50
2022-08-11T01:04:55.801Z,1.43
2022-08-11T01:08:01.542Z,1.40
2022-08-11T01:11:14.096Z,1.27
2022-08-11T01:13:49.624Z,1.23
2022-08-11T01:16:47.345Z,1.10
2022-08-11T01:19:31.675Z,1.27
2022-08-11T01:22:13.496Z,1.60
2022-08-11T01:25:17.542Z,1.23
2022-08-11T01:27:47.105Z,1.50
2022-08-11T01:30:32.204Z,1.50
2022-08-11T01:33:20.748Z,1.50
2022-08-11T01:36:17.896Z,1.13
2022-08-11T01:38:56.713Z,1.47
2022-08-11T01:42:13.746Z,1.50
2022-08-11T01:45:02.137Z,1.30
2022-08-11T01:47:54.419Z,1.97
2022-08-11T01:50:24.232Z,1.40
2022-08-11T01:53:12.607Z,1.10
2022-08-11T01:55:57.340Z,1.53
2022-08-11T01:58:43.671Z,1.07
2022-08-11T02:01:32.821Z,1.50
2022-08-11T02:04:19.837Z,1.87
2022-08-11T02:07:03.625Z,1.27
2022-08-11T02:10:35.311Z,1.40
2022-08-11T02:13:44.660Z,1.50
2022-08-11T02:16:39.776Z,1.47
2022-08-11T02:19:37.012Z,1.40
2022-08-11T02:22:35.907Z,1.20
2022-08-11T02:25:18.808Z,1.33
2022-08-11T02:27:53.452Z,1.60
2022-08-11T02:30:24.292Z,1.40
2022-08-11T02:33:14.692Z,1.70
2022-08-11T02:36:08.562Z,2.00
2022-08-11T02:38:49.134Z,1.03
2022-08-11T02:41:50.372Z,1.77
2022-08-11T02:44:36.698Z,1.50
2022-08-11T02:47:27.777Z,1.90
2022-08-11T02:50:09.878Z,1.70
2022-08-11T02:52:51.912Z,1.40
2022-08-11T02:55:55.774Z,1.80
2022-08-11T02:59:06.288Z,1.50
2022-08-11T03:01:41.437Z,1.90
2022-08-11T03:04:14.749Z,1.33
2022-08-11T03:07:29.112Z,1.50
2022-08-11T03:10:19.948Z,1.83
2022-08-11T03:13:10.505Z,1.30
2022-08-11T03:16:26.368Z,1.20
2022-08-11T03:19:14.200Z,1.33
2022-08-11T03:22:02.474Z,1.30
2022-08-11T03:25:01.555Z,1.40
2022-08-11T03:27:40.102Z,1.50
2022-08-11T03:30:34.263Z,1.60
2022-08-11T03:33:45.455Z,1.17
2022-08-11T03:36:33.322Z,1.13
2022-08-11T03:39:33.463Z,1.53
2022-08-11T03:42:21.867Z,1.70
2022-08-11T03:45:24.016Z,1.43
2022-08-11T03:48:11.408Z,1.83
2022-08-11T03:50:55.856Z,1.23
2022-08-11T03:53:48.499Z,1.20
2022-08-11T03:56:52.053Z,1.30
2022-08-11T03:59:51.223Z,1.30
2022-08-11T04:02:39.426Z,1.50
2022-08-11T04:05:30.164Z,1.30
2022-08-11T04:08:08.825Z,1.40
2022-08-11T04:10:49.006Z,1.40
2022-08-11T04:13:34.480Z,1.23
2022-08-11T04:16:16.713Z,1.23
2022-08-11T04:19:08.829Z,1.17
2022-08-11T04:21:35.580Z,1.43
2022-08-11T04:24:36.588Z,1.40
2022-08-11T04:27:01.869Z,1.40
2022-08-11T04:30:03.416Z,1.30
2022-08-11T04:32:56.489Z,1.17
2022-08-11T04:35:58.002Z,1.10
2022-08-11T04:38:30.950Z,1.60
2022-08-11T04:42:13.868Z,1.40
2022-08-11T04:45:04.710Z,1.10
2022-08-11T04:48:27.399Z,1.63
2022-08-11T04:51:17.780Z,1.33
2022-08-11T04:54:30.138Z,1.13
2022-08-11T04:57:27.223Z,1.27
2022-08-11T05:00:25.363Z,1.40
2022-08-11T05:03:19.388Z,1.20
2022-08-11T05:06:24.762Z,1.40
2022-08-11T05:09:09.997Z,1.70
2022-08-11T05:12:06.346Z,1.67
2022-08-11T05:15:00.150Z,2.23
2022-08-11T05:18:13.607Z,1.70
2022-08-11T05:21:09.868Z,1.90
2022-08-11T05:24:02.457Z,1.10
2022-08-11T05:26:49.139Z,1.40
2022-08-11T05:30:01.889Z,1.70
2022-08-11T05:33:02.037Z,1.63
2022-08-11T05:36:02.162Z,1.67
2022-08-11T05:38:50.951Z,1.73
2022-08-11T05:41:38.520Z,2.00
2022-08-11T05:44:24.086Z,1.53
2022-08-11T05:47:09.587Z,1.63
2022-08-11T05:49:55.095Z,1.80
2022-08-11T05:52:46.831Z,1.97
2022-08-11T05:55:32.946Z,1.37
2022-08-11T05:58:06.383Z,1.40
2022-08-11T06:00:42.844Z,1.30
2022-08-11T06:03:10.933Z,1.40
2022-08-11T06:05:44.115Z,1.20
2022-08-11T06:08:14.369Z,1.47
2022-08-11T06:10:42.524Z,1.30
2022-08-11T06:13:09.305Z,1.20
2022-08-11T06:15:45.073Z,1.20
2022-08-11T06:18:12.396Z,1.40
2022-08-11T06:20:56.426Z,1.50
2022-08-11T06:23:25.186Z,1.27
2022-08-11T06:25:52.622Z,1.30
2022-08-11T06:28:21.364Z,1.20
2022-08-11T06:30:49.018Z,1.50
2022-08-11T06:33:21.882Z,1.40
2022-08-11T06:35:48.869Z,1.20
2022-08-11T06:38:30.765Z,1.20
2022-08-11T06:41:31.699Z,1.00
2022-08-11T06:44:14.419Z,1.40
2022-08-11T06:46:42.771Z,1.40
2022-08-11T06:49:31.417Z,1.00
2022-08-11T06:52:05.213Z,1.20
2022-08-11T06:54:33.967Z,1.37
2022-08-11T06:57:29.747Z,1.20
2022-08-11T07:00:15.653Z,1.83
2022-08-11T07:03:01.062Z,1.33
2022-08-11T07:05:46.394Z,1.30
2022-08-11T07:08:56.317Z,1.17
2022-08-11T07:12:08.505Z,1.00
2022-08-11T07:14:59.950Z,1.10
2022-08-11T07:17:28.113Z,1.90
2022-08-11T07:20:15.293Z,2.00
2022-08-11T07:23:01.070Z,1.50
2022-08-11T07:26:05.992Z,1.63
2022-08-11T07:28:51.109Z,1.60
2022-08-11T07:31:22.078Z,1.90
2022-08-11T07:34:12.167Z,1.90
2022-08-11T07:36:45.497Z,2.10
2022-08-11T07:39:29.042Z,1.83
2022-08-11T07:41:57.288Z,1.80
2022-08-11T07:44:34.265Z,1.80
2022-08-11T07:47:20.169Z,2.17
2022-08-11T07:50:05.305Z,2.00
2022-08-11T07:52:34.559Z,1.80
2022-08-11T07:55:11.845Z,2.07
2022-08-11T07:58:16.612Z,1.70
2022-08-11T08:01:21.476Z,2.03
2022-08-11T08:04:07.631Z,2.00
2022-08-11T08:06:52.920Z,2.30
2022-08-11T08:09:39.680Z,2.00
2022-08-11T08:12:25.256Z,1.97
2022-08-11T08:15:10.913Z,1.70
2022-08-11T08:18:09.549Z,2.20
2022-08-11T08:20:43.287Z,2.00
2022-08-11T08:23:10.144Z,1.97
2022-08-11T08:25:41.118Z,1.57
2022-08-11T08:28:10.508Z,2.30
2022-08-11T08:30:50.751Z,1.90
2022-08-11T08:33:20.257Z,1.90
2022-08-11T08:35:54.435Z,1.87
2022-08-11T08:38:23.086Z,2.10
2022-08-11T08:40:51.211Z,1.97
2022-08-11T08:43:18.358Z,2.30
2022-08-11T08:45:45.172Z,1.93
2022-08-11T08:48:15.156Z,2.10
2022-08-11T08:51:19.511Z,2.13
2022-08-11T08:53:53.547Z,1.60
2022-08-11T08:56:25.067Z,2.30
2022-08-11T08:58:51.845Z,1.63
2022-08-11T09:01:18.665Z,1.83
2022-08-11T09:04:06.579Z,1.70
2022-08-11T09:06:32.241Z,1.57
2022-08-11T09:08:59.964Z,1.87
2022-08-11T09:11:45.014Z,1.77
2022-08-11T09:14:15.099Z,2.17
2022-08-11T09:16:42.010Z,2.30
2022-08-11T09:19:09.575Z,1.70
2022-08-11T09:21:49.113Z,2.00
2022-08-11T09:24:36.706Z,1.70
2022-08-11T09:27:08.647Z,2.20
2022-08-11T09:29:35.575Z,2.00
2022-08-11T09:32:02.333Z,1.80
2022-08-11T09:34:29.131Z,1.90
2022-08-11T09:37:28.282Z,1.60
2022-08-11T09:40:19.476Z,1.47
2022-08-11T09:43:04.701Z,1.60
2022-08-11T09:45:39.901Z,1.10
2022-08-11T09:48:07.371Z,1.50
2022-08-11T09:50:34.705Z,1.80
2022-08-11T09:53:35.835Z,1.50
2022-08-11T09:55:52.860Z,1.23
2022-08-11T09:58:33.937Z,1.40
2022-08-11T10:01:07.970Z,1.60
2022-08-11T10:03:38.328Z,1.57
2022-08-11T10:06:33.196Z,1.60
2022-08-11T10:09:03.111Z,1.60
2022-08-11T10:11:29.829Z,1.50
2022-08-11T10:14:34.063Z,1.57
2022-08-11T10:17:04.415Z,1.50
2022-08-11T10:19:31.664Z,1.70
2022-08-11T10:22:16.739Z,1.23
2022-08-11T10:25:01.961Z,1.37
2022-08-11T10:28:09.079Z,1.50
2022-08-11T10:30:33.950Z,1.23
2022-08-11T10:33:37.056Z,1.30
2022-08-11T10:36:16.273Z,1.33
2022-08-11T10:38:45.856Z,1.27
2022-08-11T10:41:31.951Z,1.03
2022-08-11T10:44:03.668Z,1.20
2022-08-11T10:46:49.684Z,0.80
2022-08-11T10:49:16.477Z,0.87
2022-08-11T10:52:01.583Z,1.00
2022-08-11T10:54:46.785Z,1.00
2022-08-11T10:57:33.615Z,0.70
2022-08-11T11:00:00.480Z,1.10
2022-08-11T11:02:30.035Z,1.00
2022-08-11T11:05:09.191Z,1.03
2022-08-11T11:07:44.348Z,1.00
2022-08-11T11:10:11.416Z,0.80
2022-08-11T11:12:59.077Z,0.67
2022-08-11T11:15:46.220Z,0.63
2022-08-11T11:18:18.231Z,0.80
2022-08-11T11:21:15.391Z,0.73
2022-08-11T11:24:11.932Z,1.00
2022-08-11T11:26:43.986Z,1.00
2022-08-11T11:29:27.931Z,0.90
2022-08-11T11:32:06.663Z,0.60
2022-08-11T11:34:47.936Z,0.50
2022-08-11T11:37:20.135Z,0.90
2022-08-11T11:39:46.948Z,0.50
2022-08-11T11:42:13.720Z,0.90
2022-08-11T11:44:42.059Z,0.60
2022-08-11T11:47:08.853Z,0.70
2022-08-11T11:49:39.432Z,1.00
2022-08-11T11:52:07.061Z,0.90
2022-08-11T11:54:34.030Z,0.80
2022-08-11T11:57:20.762Z,0.60
2022-08-11T12:00:07.842Z,0.70
2022-08-11T12:02:35.458Z,0.80
2022-08-11T12:05:02.352Z,0.83
2022-08-11T12:07:56.897Z,0.90
2022-08-11T12:10:35.401Z,0.90
2022-08-11T12:13:20.465Z,0.77
2022-08-11T12:16:32.299Z,0.60
2022-08-11T12:18:34.692Z,0.50
2022-08-11T12:21:01.801Z,0.77
2022-08-11T12:23:46.787Z,0.80
2022-08-11T12:26:34.916Z,0.70
2022-08-11T12:29:01.744Z,0.50
2022-08-11T12:31:32.364Z,0.60
2022-08-11T12:34:03.526Z,0.40
2022-08-11T12:36:33.615Z,0.60
2022-08-11T12:39:00.377Z,0.40
2022-08-11T12:41:57.002Z,0.30
2022-08-11T12:44:45.890Z,0.63
2022-08-11T12:47:15.501Z,0.83
2022-08-11T12:50:06.262Z,0.40
2022-08-11T12:52:50.529Z,0.50
2022-08-11T12:55:37.688Z,0.50
2022-08-11T12:58:17.144Z,0.60
2022-08-11T13:01:05.811Z,0.47
2022-08-11T13:03:57.681Z,0.70
2022-08-11T13:06:24.740Z,0.50
2022-08-11T13:08:51.541Z,0.43
2022-08-11T13:11:56.019Z,0.90
2022-08-11T13:14:23.466Z,0.30
2022-08-11T13:17:08.565Z,0.70
2022-08-11T13:19:35.681Z,0.60
2022-08-11T13:22:02.513Z,0.70
2022-08-11T13:24:29.266Z,0.40
2022-08-11T13:26:55.996Z,1.00
2022-08-11T13:29:24.783Z,1.30
2022-08-11T13:31:56.661Z,0.93
2022-08-11T13:34:24.193Z,0.90
2022-08-11T13:36:52.958Z,0.70
2022-08-11T13:39:24.523Z,0.80
2022-08-11T13:41:51.968Z,1.03
2022-08-11T13:44:24.818Z,1.10
2022-08-11T13:46:53.364Z,0.80
2022-08-11T13:49:20.315Z,0.70
2022-08-11T13:51:47.131Z,1.47
2022-08-11T13:54:21.565Z,1.03
2022-08-11T13:56:49.763Z,0.60
2022-08-11T13:59:23.959Z,0.57
2022-08-11T14:02:20.055Z,1.00
2022-08-11T14:05:00.564Z,0.90
2022-08-11T14:07:34.525Z,0.90
2022-08-11T14:10:01.418Z,0.90
2022-08-11T14:12:48.547Z,0.57
2022-08-11T14:15:21.152Z,1.03
2022-08-11T14:17:51.566Z,0.80
2022-08-11T14:20:38.430Z,1.10
2022-08-11T14:23:05.842Z,0.70
2022-08-11T14:26:00.364Z,0.90
2022-08-11T14:28:30.470Z,0.57
2022-08-11T14:31:01.770Z,0.80
2022-08-11T14:33:57.949Z,0.73
2022-08-11T14:36:15.756Z,1.17
2022-08-11T14:38:42.494Z,1.00
2022-08-11T14:41:27.683Z,1.00
2022-08-11T14:44:14.846Z,0.90
2022-08-11T14:47:01.104Z,0.83
2022-08-11T14:49:28.400Z,0.70
2022-08-11T14:51:57.096Z,0.83
2022-08-11T14:54:43.807Z,0.83
2022-08-11T14:57:10.569Z,0.83
2022-08-11T14:59:37.842Z,0.80
2022-08-11T15:02:23.441Z,1.07
2022-08-11T15:04:51.086Z,0.97
2022-08-11T15:07:17.871Z,1.00
2022-08-11T15:10:02.704Z,0.93
2022-08-11T15:12:33.128Z,1.17
2022-08-11T15:15:19.706Z,0.80
2022-08-11T15:17:48.013Z,0.93
2022-08-11T15:20:36.037Z,1.10
2022-08-11T15:23:21.783Z,0.90
2022-08-11T15:25:51.177Z,1.00
2022-08-11T15:28:36.318Z,1.37
2022-08-11T15:31:41.801Z,1.00
2022-08-11T15:34:36.419Z,1.07
2022-08-11T15:37:26.600Z,1.00
2022-08-11T15:40:36.412Z,1.10
2022-08-11T15:43:45.477Z,1.20
2022-08-11T15:46:17.862Z,1.00
2022-08-11T15:48:48.527Z,1.30
2022-08-11T15:51:29.363Z,0.93
2022-08-11T15:53:58.494Z,1.00
2022-08-11T15:56:26.507Z,0.97
2022-08-11T15:59:42.315Z,1.00
2022-08-11T16:02:30.946Z,1.30
2022-08-11T16:04:58.553Z,1.30
2022-08-11T16:07:27.395Z,1.50
2022-08-11T16:10:00.529Z,1.40
2022-08-11T16:12:31.998Z,1.70
2022-08-11T16:15:23.172Z,1.30
2022-08-11T16:17:57.932Z,1.33
2022-08-11T16:20:26.052Z,1.50
2022-08-11T16:23:00.491Z,1.30
2022-08-11T16:27:09.539Z,1.03
2022-08-11T16:28:16.898Z,1.27
2022-08-11T16:30:44.275Z,1.53
2022-08-11T16:33:48.547Z,1.67
2022-08-11T16:36:16.174Z,1.20
2022-08-11T16:38:43.045Z,1.23
2022-08-11T16:41:11.943Z,1.37
2022-08-11T16:43:59.668Z,1.50
2022-08-11T16:46:44.941Z,2.00
2022-08-11T16:49:21.068Z,1.67
2022-08-11T16:51:47.770Z,1.23
2022-08-11T16:54:14.497Z,0.93
2022-08-11T16:56:51.882Z,1.23
2022-08-11T16:59:20.556Z,1.60
2022-08-11T17:02:10.607Z,1.10
2022-08-11T17:05:16.053Z,1.57
2022-08-11T17:08:02.249Z,1.53
2022-08-11T17:11:03.156Z,1.27
2022-08-11T17:13:52.584Z,1.20
2022-08-11T17:16:24.206Z,1.30
2022-08-11T17:19:01.181Z,0.93
2022-08-11T17:21:30.206Z,1.40
2022-08-11T17:24:09.636Z,1.53
2022-08-11T17:26:59.101Z,1.20
2022-08-11T17:29:53.681Z,1.10
2022-08-11T17:32:56.206Z,1.00
2022-08-11T17:35:33.258Z,1.47
2022-08-11T17:38:19.716Z,1.50
2022-08-11T17:41:07.286Z,1.30
2022-08-11T17:43:52.524Z,1.40
2022-08-11T17:46:38.127Z,1.43
2022-08-11T17:49:07.691Z,1.23
2022-08-11T17:51:53.498Z,1.23
2022-08-11T17:54:40.064Z,1.50
2022-08-11T17:57:27.045Z,1.33
2022-08-11T17:59:54.149Z,1.10
2022-08-11T18:02:48.746Z,1.33
2022-08-11T18:05:18.198Z,1.30
2022-08-11T18:08:03.358Z,1.10
2022-08-11T18:10:50.132Z,1.20
2022-08-11T18:13:36.301Z,1.30
2022-08-11T18:16:21.860Z,1.00
2022-08-11T18:19:06.826Z,1.00
2022-08-11T18:22:08.234Z,1.43
2022-08-11T18:24:58.560Z,1.10
2022-08-11T18:27:45.853Z,0.87
2022-08-11T18:30:31.759Z,1.30
2022-08-11T18:33:44.966Z,0.87
2022-08-11T18:36:25.121Z,0.83
2022-08-11T18:39:10.206Z,0.90
2022-08-11T18:41:56.421Z,1.50
2022-08-11T18:44:44.673Z,1.57
2022-08-11T18:47:30.838Z,1.20
2022-08-11T18:50:32.532Z,1.20
2022-08-11T18:53:23.885Z,1.40
2022-08-11T18:56:08.981Z,1.20
2022-08-11T18:58:54.122Z,1.40
2022-08-11T19:01:43.023Z,1.30
2022-08-11T19:04:30.735Z,1.20
2022-08-11T19:07:20.155Z,1.27
2022-08-11T19:10:05.729Z,1.20
2022-08-11T19:12:58.799Z,1.70
2022-08-11T19:15:44.432Z,1.50
2022-08-11T19:18:32.497Z,1.50
2022-08-11T19:21:17.561Z,1.00
2022-08-11T19:24:03.757Z,1.10
2022-08-11T19:26:50.367Z,1.37
2022-08-11T19:30:07.246Z,1.23
2022-08-11T19:32:43.954Z,1.40
2022-08-11T19:35:29.131Z,1.53
2022-08-11T19:38:14.160Z,1.33
2022-08-11T19:40:59.123Z,1.33
2022-08-11T19:43:45.259Z,1.03
2022-08-11T19:46:30.414Z,1.40
2022-08-11T19:49:16.147Z,1.03
2022-08-11T19:52:02.257Z,1.10
2022-08-11T19:54:49.741Z,1.30
2022-08-11T19:57:39.655Z,1.10
2022-08-11T20:00:36.370Z,1.07
2022-08-11T20:03:24.739Z,1.30
2022-08-11T20:06:10.338Z,1.13
2022-08-11T20:08:58.657Z,1.00
2022-08-11T20:11:45.034Z,1.20
2022-08-11T20:14:30.010Z,1.30
2022-08-11T20:17:16.001Z,1.47
2022-08-11T20:22:51.430Z,1.13
2022-08-11T20:25:36.734Z,1.20
2022-08-11T20:28:22.956Z,1.60
2022-08-11T20:31:07.889Z,1.00
2022-08-11T20:33:53.125Z,1.20
2022-08-11T20:36:38.288Z,1.40
2022-08-11T20:39:23.471Z,1.20
2022-08-11T20:42:08.718Z,1.13
2022-08-11T20:44:55.304Z,1.03
2022-08-11T20:47:59.340Z,1.37
2022-08-11T20:50:46.077Z,1.60
2022-08-11T20:53:35.818Z,1.57
2022-08-11T20:56:28.474Z,1.20
2022-08-11T20:59:18.693Z,1.67
2022-08-11T21:02:05.490Z,1.40
2022-08-11T21:04:56.182Z,1.00
2022-08-11T21:07:42.079Z,1.40
2022-08-11T21:10:28.011Z,1.23
2022-08-11T21:13:26.384Z,1.30
2022-08-11T21:16:23.351Z,1.93
2022-08-11T21:19:12.557Z,1.50
2022-08-11T21:21:57.717Z,1.23
2022-08-11T21:24:47.070Z,1.60
2022-08-11T21:27:34.297Z,1.40
2022-08-11T21:30:20.134Z,1.40
2022-08-11T21:33:05.184Z,1.73
2022-08-11T21:35:50.672Z,1.83
2022-08-11T21:38:35.596Z,1.50
2022-08-11T21:41:20.815Z,1.77
2022-08-11T21:44:06.391Z,1.90
2022-08-11T21:46:57.162Z,1.67
2022-08-11T21:49:42.178Z,1.63
2022-08-11T21:52:27.361Z,1.97
2022-08-11T21:55:13.199Z,1.73
2022-08-11T21:57:58.907Z,1.80
2022-08-11T22:00:43.902Z,1.50
2022-08-11T22:03:29.121Z,1.87
2022-08-11T22:06:17.384Z,1.67
2022-08-11T22:09:02.626Z,1.77
2022-08-11T22:11:48.080Z,1.60
2022-08-11T22:14:53.181Z,1.27
2022-08-11T22:17:38.336Z,1.57
2022-08-11T22:20:25.586Z,1.20
2022-08-11T22:23:11.855Z,1.40
2022-08-11T22:26:03.840Z,1.40
2022-08-11T22:28:52.303Z,1.50
2022-08-11T22:31:37.473Z,1.67
2022-08-11T22:34:22.756Z,1.33
2022-08-11T22:37:07.745Z,1.60
2022-08-11T22:40:02.549Z,1.60
2022-08-11T22:42:49.970Z,1.40
2022-08-11T22:45:35.591Z,1.20
2022-08-11T22:48:22.703Z,1.73
2022-08-11T22:51:07.750Z,1.70
2022-08-11T22:53:57.557Z,2.10
2022-08-11T22:56:45.234Z,2.00
2022-08-11T22:59:30.441Z,2.00
2022-08-11T23:02:15.536Z,1.80
2022-08-11T23:05:00.584Z,1.63
2022-08-11T23:07:49.894Z,1.83
2022-08-11T23:10:37.242Z,1.57
2022-08-11T23:13:22.549Z,1.37
2022-08-11T23:16:08.312Z,1.57
2022-08-11T23:18:53.457Z,1.60
2022-08-11T23:21:39.496Z,1.60
2022-08-11T23:24:25.607Z,1.20
2022-08-11T23:27:10.750Z,1.60
2022-08-11T23:29:55.845Z,1.43
2022-08-11T23:32:41.107Z,1.30
2022-08-11T23:35:39.034Z,1.33
2022-08-11T23:38:25.942Z,1.70
2022-08-11T23:41:10.882Z,1.70
2022-08-11T23:43:56.117Z,1.30
2022-08-11T23:46:42.354Z,1.20
2022-08-11T23:49:27.602Z,1.30
2022-08-11T23:52:13.277Z,1.00
2022-08-11T23:54:58.446Z,1.33
2022-08-11T23:57:48.684Z,1.30
